Time;durP1;ratioP1;P1;durP2;ratioP2;P2;SDS_P1;SDS_P2;PMS_P1;PMS_P2;Temp;Humidity;BMP_temperature;BMP_pressure;BME280_temperature;BME280_humidity;BME280_pressure;Samples;Min_cycle;Max_cycle;Signal;HPM_P1;HPM_P2
2022/05/09 00:00:40;;;;;;;4.60;2.90;;;;;;;10.59;30.25;101587.13;10393486;28;20220;-87
2022/05/09 00:05:42;;;;;;;5.93;3.10;;;;;;;10.05;30.85;101583.38;10393455;28;20193;-88
2022/05/09 00:10:45;;;;;;;6.00;2.70;;;;;;;9.93;31.09;101589.81;10411594;28;20707;-86
2022/05/09 00:15:47;;;;;;;7.43;2.50;;;;;;;9.87;30.31;101581.84;10408819;28;20189;-86
2022/05/09 00:20:50;;;;;;;7.33;2.80;;;;;;;10.01;30.32;101588.94;10408328;28;20270;-87
2022/05/09 00:25:53;;;;;;;9.27;3.10;;;;;;;9.81;30.47;101588.91;10407403;28;20216;-85
2022/05/09 00:30:55;;;;;;;5.53;3.13;;;;;;;9.87;30.74;101588.38;10391853;28;20193;-86
2022/05/09 00:35:58;;;;;;;6.33;3.17;;;;;;;10.23;30.13;101589.78;10424211;28;20247;-85
2022/05/09 00:46:20;;;;;;;6.93;3.47;;;;;;;10.04;29.56;101587.38;10424561;28;20540;-87
2022/05/09 00:51:24;;;;;;;6.73;3.27;;;;;;;9.92;30.49;101582.44;10391180;28;20181;-88
2022/05/09 00:56:31;;;;;;;5.70;3.10;;;;;;;10.08;29.94;101588.38;10406974;28;20639;-87
2022/05/09 01:01:33;;;;;;;3.80;2.30;;;;;;;9.61;30.09;101585.66;10404954;28;20228;-85
2022/05/09 01:06:36;;;;;;;7.10;2.60;;;;;;;9.60;30.39;101583.97;10388641;28;20219;-88
2022/05/09 01:11:40;;;;;;;5.07;2.50;;;;;;;9.92;30.11;101582.44;10388407;28;20246;-86
2022/05/09 01:16:43;;;;;;;7.37;3.23;;;;;;;9.96;29.54;101579.75;10372048;28;20250;-86
2022/05/09 01:21:46;;;;;;;6.03;2.77;;;;;;;9.64;29.92;101578.44;10404082;28;20221;-86
2022/05/09 01:26:48;;;;;;;5.70;2.50;;;;;;;9.78;29.77;101569.69;10387860;28;20262;-88
2022/05/09 01:31:52;;;;;;;7.50;2.73;;;;;;;9.83;29.98;101566.63;10405031;28;20193;-86
2022/05/09 01:36:58;;;;;;;7.47;2.77;;;;;;;9.23;30.75;101573.47;10411526;28;20216;-87
2022/05/09 01:42:04;;;;;;;9.33;3.23;;;;;;;9.48;30.51;101568.81;10404040;28;20235;-86
2022/05/09 01:52:27;;;;;;;5.07;2.80;;;;;;;8.94;31.20;101577.03;10405932;28;20200;-87
2022/05/09 01:57:32;;;;;;;4.80;3.07;;;;;;;9.07;31.00;101569.50;10386297;28;20208;-85
2022/05/09 02:02:35;;;;;;;7.17;3.23;;;;;;;9.30;30.45;101571.75;10402709;28;20282;-88
2022/05/09 02:07:37;;;;;;;5.53;2.63;;;;;;;8.97;31.21;101571.53;10402526;28;20422;-86
2022/05/09 02:12:40;;;;;;;7.77;2.90;;;;;;;8.81;31.26;101572.41;10385692;28;20250;-87
2022/05/09 02:17:42;;;;;;;7.73;3.20;;;;;;;9.10;30.59;101563.16;10419388;28;20204;-87
2022/05/09 02:22:44;;;;;;;7.80;3.03;;;;;;;8.85;30.91;101571.41;10385417;28;20258;-86
2022/05/09 02:27:46;;;;;;;7.17;2.90;;;;;;;9.08;30.31;101559.81;10385593;28;20250;-89
2022/05/09 02:32:49;;;;;;;9.67;3.00;;;;;;;8.87;30.57;101560.50;10401642;28;20231;-86
2022/05/09 02:37:52;;;;;;;7.13;3.20;;;;;;;8.98;30.83;101556.16;10403352;28;20189;-88
2022/05/09 02:42:57;;;;;;;5.03;2.67;;;;;;;8.95;30.35;101556.00;10386484;28;20192;-88
2022/05/09 02:47:59;;;;;;;4.20;2.30;;;;;;;9.06;30.54;101562.16;10386832;28;20212;-88
2022/05/09 02:53:02;;;;;;;8.03;2.90;;;;;;;9.06;30.44;101556.47;10385855;28;20196;-87
2022/05/09 02:58:04;;;;;;;7.27;3.03;;;;;;;8.95;30.87;101551.13;10402319;28;20242;-85
2022/05/09 03:08:29;;;;;;;12.03;2.97;;;;;;;8.89;30.74;101541.13;10404815;28;20242;-86
2022/05/09 03:13:31;;;;;;;6.37;2.80;;;;;;;8.83;30.49;101545.34;10385391;28;20193;-85
2022/05/09 03:18:34;;;;;;;6.57;2.93;;;;;;;8.99;30.67;101542.78;10384956;28;20624;-86
2022/05/09 03:23:37;;;;;;;8.60;2.93;;;;;;;8.72;30.72;101546.03;10391243;28;20205;-91
2022/05/09 03:28:39;;;;;;;6.73;2.97;;;;;;;8.84;30.94;101538.47;10416007;28;20239;-89
2022/05/09 03:33:41;;;;;;;9.73;3.30;;;;;;;8.57;31.62;101538.88;10414936;28;20668;-93
2022/05/09 03:38:44;;;;;;;9.07;3.63;;;;;;;8.58;31.40;101540.56;10381466;28;20215;-87
2022/05/09 03:43:47;;;;;;;12.43;5.27;;;;;;;8.10;31.84;101541.56;10367565;28;20197;-86
2022/05/09 03:48:49;;;;;;;10.30;7.03;;;;;;;8.67;31.13;101532.84;10350929;28;20221;-86
2022/05/09 03:53:51;;;;;;;12.63;6.33;;;;;;;8.35;31.50;101530.59;10350722;28;20216;-86
2022/05/09 03:58:53;;;;;;;13.80;6.77;;;;;;;8.33;32.20;101532.91;10367255;28;20214;-86
2022/05/09 04:03:56;;;;;;;10.87;5.93;;;;;;;8.75;31.22;101531.13;10367768;28;20190;-87
2022/05/09 04:08:58;;;;;;;8.37;5.53;;;;;;;8.62;31.71;101530.16;10374938;28;20225;-86
2022/05/09 04:14:00;;;;;;;8.47;5.10;;;;;;;9.11;30.97;101527.88;10406541;28;20193;-85
2022/05/09 04:19:03;;;;;;;9.20;5.93;;;;;;;8.63;31.75;101532.66;10390423;28;20501;-84
2022/05/09 04:24:05;;;;;;;9.93;5.17;;;;;;;9.10;30.53;101534.75;10404270;28;20197;-84
2022/05/09 04:29:08;;;;;;;7.87;4.50;;;;;;;8.58;31.71;101534.88;10399790;28;20274;-86
2022/05/09 04:34:10;;;;;;;10.53;4.77;;;;;;;8.89;31.15;101535.44;10405112;28;20654;-87
2022/05/09 04:39:13;;;;;;;7.73;4.47;;;;;;;9.05;31.25;101534.91;10406149;28;20189;-88
2022/05/09 04:44:15;;;;;;;9.70;4.80;;;;;;;9.06;31.60;101536.59;10389622;28;20200;-85
2022/05/09 04:49:17;;;;;;;7.80;4.07;;;;;;;9.51;31.20;101540.53;10408466;28;20212;-89
2022/05/09 04:54:19;;;;;;;5.97;3.83;;;;;;;9.35;31.29;101536.63;10410448;28;20201;-86
2022/05/09 04:59:21;;;;;;;9.63;4.90;;;;;;;9.44;31.11;101545.94;10427780;28;20247;-84
2022/05/09 05:04:24;;;;;;;9.97;3.77;;;;;;;9.45;31.65;101541.06;10425345;28;20193;-86
2022/05/09 05:09:28;;;;;;;9.37;4.73;;;;;;;9.60;30.68;101531.94;10427346;28;20201;-89
2022/05/09 05:14:30;;;;;;;10.37;4.87;;;;;;;9.37;31.57;101534.28;10426428;28;20647;-84
2022/05/09 05:19:38;;;;;;;8.57;5.57;;;;;;;9.62;31.19;101529.59;10424748;28;20224;-85
2022/05/09 05:24:46;;;;;;;7.47;4.37;;;;;;;9.64;31.49;101533.78;10409747;28;20235;-85
2022/05/09 05:29:49;;;;;;;7.73;4.87;;;;;;;10.04;30.58;101533.31;10391098;28;20612;-88
2022/05/09 05:34:51;;;;;;;13.67;5.57;;;;;;;9.55;31.16;101538.66;10423770;28;20185;-87
2022/05/09 05:39:54;;;;;;;8.53;4.67;;;;;;;10.07;29.94;101535.47;10396727;28;20223;-86
2022/05/09 05:44:56;;;;;;;8.70;5.40;;;;;;;10.33;29.99;101540.94;10412251;28;20197;-91
2022/05/09 05:49:59;;;;;;;9.70;5.40;;;;;;;10.21;30.96;101541.72;10416481;28;20213;-88
2022/05/09 05:55:06;;;;;;;12.90;5.33;;;;;;;10.32;29.41;101540.09;10410011;28;20197;-87
2022/05/09 06:00:19;;;;;;;10.07;4.33;;;;;;;10.69;29.42;101540.25;10408570;28;20212;-87
2022/05/09 06:05:21;;;;;;;8.60;5.13;;;;;;;10.79;29.68;101534.13;10409267;28;20193;-86
2022/05/09 06:10:26;;;;;;;9.07;5.37;;;;;;;10.92;29.34;101527.28;10408235;28;20205;-89
2022/05/09 06:15:33;;;;;;;10.60;5.37;;;;;;;11.26;28.14;101525.19;10409077;28;20188;-89
2022/05/09 06:20:37;;;;;;;8.33;5.37;;;;;;;10.84;29.60;101522.47;10406506;28;20262;-91
2022/05/09 06:25:43;;;;;;;11.60;5.93;;;;;;;10.93;29.67;101528.94;10388814;28;20192;-88
2022/05/09 06:30:46;;;;;;;11.27;5.43;;;;;;;11.13;28.96;101521.50;10404804;28;20566;-89
2022/05/09 06:35:49;;;;;;;8.53;4.63;;;;;;;11.26;28.96;101526.00;10406850;28;20207;-89
2022/05/09 06:40:53;;;;;;;8.53;4.80;;;;;;;11.49;28.33;101529.22;10420626;28;20185;-88
2022/05/09 06:45:55;;;;;;;8.40;5.77;;;;;;;11.83;28.20;101528.72;10420958;28;20211;-90
2022/05/09 06:51:00;;;;;;;10.83;6.33;;;;;;;11.13;29.28;101522.31;10404482;28;20212;-89
2022/05/09 06:56:03;;;;;;;7.53;5.40;;;;;;;11.74;28.17;101525.13;10403203;28;20230;-89
2022/05/09 07:01:33;;;;;;;9.97;5.00;;;;;;;11.36;29.04;101524.69;10404162;28;20612;-87
2022/05/09 07:06:36;;;;;;;7.70;5.00;;;;;;;12.38;27.46;101509.97;10403559;28;20650;-86
2022/05/09 07:11:39;;;;;;;9.20;5.57;;;;;;;12.64;27.50;101506.63;10390132;28;20267;-85
2022/05/09 07:16:45;;;;;;;7.83;5.40;;;;;;;13.07;27.42;101497.22;10385704;28;20189;-85
2022/05/09 07:21:47;;;;;;;10.27;5.80;;;;;;;12.95;28.74;101510.72;10401321;28;20255;-85
2022/05/09 07:26:49;;;;;;;5.93;4.43;;;;;;;12.54;29.31;101508.00;10400338;28;20204;-84
2022/05/09 07:31:52;;;;;;;10.57;5.17;;;;;;;13.44;27.95;101505.47;10401041;28;20209;-84
2022/05/09 07:36:54;;;;;;;8.40;4.50;;;;;;;13.97;27.73;101501.00;10417305;28;20181;-85
2022/05/09 07:41:57;;;;;;;9.63;4.03;;;;;;;13.75;27.65;101494.00;10401185;28;20255;-86
2022/05/09 07:46:59;;;;;;;6.23;4.13;;;;;;;13.99;28.05;101504.34;10400796;28;20192;-84
2022/05/09 07:52:05;;;;;;;8.43;3.77;;;;;;;13.13;29.12;101490.03;10400931;28;20209;-87
2022/05/09 07:57:07;;;;;;;7.63;3.45;;;;;;;14.71;27.09;101489.47;10400502;28;20223;-86
2022/05/09 08:02:10;;;;;;;13.48;3.65;;;;;;;14.57;27.58;101495.75;10416835;28;20513;-85
2022/05/09 08:07:13;;;;;;;8.43;3.43;;;;;;;15.00;26.93;101500.25;10400673;28;20235;-85
2022/05/09 08:12:16;;;;;;;5.20;2.90;;;;;;;15.63;25.90;101497.63;10420907;28;20625;-85
2022/05/09 08:17:18;;;;;;;6.72;3.45;;;;;;;15.45;27.05;101490.75;10408023;28;20185;-85
2022/05/09 08:22:31;;;;;;;10.00;4.03;;;;;;;15.49;26.83;101482.25;10424691;28;20181;-85
2022/05/09 08:27:34;;;;;;;8.07;4.10;;;;;;;15.98;26.21;101482.94;10423393;28;20181;-86
2022/05/09 08:32:37;;;;;;;7.60;3.97;;;;;;;15.73;26.58;101484.66;10422876;28;20251;-87
2022/05/09 08:37:40;;;;;;;10.50;4.70;;;;;;;16.68;25.39;101481.34;10422943;28;20243;-86
2022/05/09 08:42:48;;;;;;;7.97;4.67;;;;;;;15.77;25.98;101485.50;10422875;28;20193;-87
2022/05/09 08:47:53;;;;;;;9.88;4.80;;;;;;;16.63;25.79;101482.56;10393110;28;20224;-90
2022/05/09 08:53:09;;;;;;;7.57;4.72;;;;;;;16.43;25.73;101483.94;10409916;28;20189;-94
2022/05/09 08:58:11;;;;;;;10.02;5.10;;;;;;;16.57;26.06;101477.50;10405970;28;20228;-91
2022/05/09 09:03:32;;;;;;;8.30;4.55;;;;;;;16.45;26.13;101487.25;10368406;28;20225;-92
2022/05/09 09:08:43;;;;;;;7.82;5.13;;;;;;;17.38;24.58;101472.56;10399897;28;20258;-93
2022/05/09 09:13:56;;;;;;;8.70;5.32;;;;;;;17.41;25.47;101471.75;10368191;28;20228;-91
2022/05/09 09:19:05;;;;;;;7.70;4.30;;;;;;;17.66;25.10;101466.16;10370911;28;20270;-92
2022/05/09 09:24:35;;;;;;;10.02;4.50;;;;;;;16.92;24.87;101465.56;10380119;28;20189;-84
2022/05/09 09:29:50;;;;;;;11.38;5.20;;;;;;;16.51;25.83;101453.22;10363276;28;20213;-86
2022/05/09 09:34:59;;;;;;;9.60;5.22;;;;;;;18.37;24.46;101442.63;10379255;28;20213;-85
2022/05/09 09:40:06;;;;;;;12.10;4.63;;;;;;;18.31;25.24;101447.16;10395444;28;20186;-86
2022/05/09 09:45:25;;;;;;;5.68;3.85;;;;;;;17.29;26.07;101451.09;10378814;28;20185;-85
2022/05/09 09:50:29;;;;;;;8.00;4.68;;;;;;;18.21;25.27;101447.91;10330015;28;20217;-86
2022/05/09 09:55:36;;;;;;;8.10;3.85;;;;;;;19.06;23.95;101427.88;10362184;28;20308;-85
2022/05/09 10:00:39;;;;;;;6.93;4.50;;;;;;;18.38;25.14;101438.50;10361535;28;20304;-86
2022/05/09 10:05:44;;;;;;;7.45;4.40;;;;;;;18.10;25.19;101433.44;10379173;28;20570;-87
2022/05/09 10:11:13;;;;;;;6.25;4.43;;;;;;;18.13;24.86;101426.88;10361777;28;20217;-86
2022/05/09 10:16:24;;;;;;;6.43;3.53;;;;;;;19.03;24.22;101409.31;10375222;28;20205;-85
2022/05/09 10:26:53;;;;;;;8.65;4.70;;;;;;;18.69;24.84;101403.13;10378343;28;20251;-85
2022/05/09 10:32:00;;;;;;;9.45;4.13;;;;;;;18.44;24.57;101396.50;10344019;28;20249;-84
2022/05/09 10:37:08;;;;;;;7.18;4.32;;;;;;;19.00;24.32;101383.34;10377263;28;20185;-84
2022/05/09 10:42:10;;;;;;;7.47;4.05;;;;;;;19.98;23.83;101381.47;10344760;28;20256;-85
2022/05/09 10:47:25;;;;;;;5.80;3.83;;;;;;;19.51;24.47;101380.81;10376581;28;20221;-86
2022/05/09 10:52:27;;;;;;;4.70;3.75;;;;;;;19.33;24.45;101367.66;10377212;28;20540;-86
2022/05/09 10:57:46;;;;;;;5.93;3.72;;;;;;;19.28;24.84;101368.88;10380193;28;20208;-86
2022/05/09 11:03:03;;;;;;;7.40;3.60;;;;;;;20.73;22.93;101364.44;10379187;28;20276;-84
2022/05/09 11:08:17;;;;;;;7.30;3.72;;;;;;;20.64;23.09;101358.31;10379240;28;20240;-86
2022/05/09 11:13:41;;;;;;;8.48;5.03;;;;;;;19.34;23.71;101347.03;10360959;28;20240;-85
2022/05/09 11:18:58;;;;;;;7.63;4.85;;;;;;;19.70;25.25;101346.88;10360060;28;20675;-84
2022/05/09 11:24:29;;;;;;;6.65;4.07;;;;;;;20.19;23.43;101340.00;10376385;28;20672;-84
2022/05/09 11:29:50;;;;;;;9.70;3.75;;;;;;;19.39;24.09;101343.69;10340892;28;20221;-86
2022/05/09 11:35:05;;;;;;;7.45;4.65;;;;;;;19.18;24.15;101337.94;10376972;28;20186;-83
2022/05/09 11:40:21;;;;;;;7.82;4.43;;;;;;;20.57;22.34;101329.41;10375873;28;20181;-83
2022/05/09 11:45:45;;;;;;;6.97;4.15;;;;;;;19.69;23.74;101333.66;10380716;28;20263;-84
2022/05/09 11:51:03;;;;;;;7.65;4.70;;;;;;;20.46;23.56;101317.13;10366848;28;20212;-84
2022/05/09 11:56:08;;;;;;;10.07;4.13;;;;;;;20.29;23.54;101323.88;10351818;28;20197;-86
2022/05/09 12:01:12;;;;;;;5.82;4.35;;;;;;;20.62;22.55;101317.41;10383046;28;20256;-87
2022/05/09 12:06:30;;;;;;;8.82;3.88;;;;;;;20.50;23.22;101315.84;10382809;28;20463;-84
2022/05/09 12:11:47;;;;;;;6.60;4.05;;;;;;;21.93;21.25;101297.72;10382928;28;20703;-85
2022/05/09 12:16:52;;;;;;;6.25;3.42;;;;;;;22.10;21.14;101287.13;10398552;28;20189;-86
2022/05/09 12:22:23;;;;;;;10.23;3.83;;;;;;;22.15;21.37;101293.22;10398441;28;20197;-85
2022/05/09 12:27:48;;;;;;;5.97;3.55;;;;;;;21.13;21.35;101290.44;10382793;28;20185;-86
2022/05/09 12:32:51;;;;;;;5.07;2.97;;;;;;;20.78;20.75;101280.06;10365111;28;20626;-85
2022/05/09 12:37:53;;;;;;;5.63;3.28;;;;;;;21.14;21.31;101291.25;10397842;28;20213;-84
2022/05/09 12:42:57;;;;;;;5.07;3.00;;;;;;;20.91;21.57;101278.28;10380939;28;20221;-85
2022/05/09 12:48:00;;;;;;;5.30;3.17;;;;;;;21.28;21.52;101262.16;10364763;28;20223;-84
2022/05/09 12:53:09;;;;;;;5.18;2.70;;;;;;;21.72;20.75;101260.31;10380540;28;20267;-85
2022/05/09 12:58:20;;;;;;;5.68;3.13;;;;;;;22.27;19.93;101249.13;10366942;28;20564;-85
2022/05/09 13:03:23;;;;;;;4.10;2.90;;;;;;;20.73;20.84;101248.66;10389368;28;20651;-84
2022/05/09 13:08:36;;;;;;;4.63;2.25;;;;;;;22.87;20.03;101235.63;10410526;28;20189;-84
2022/05/09 13:13:39;;;;;;;8.98;2.70;;;;;;;22.47;19.68;101225.97;10410058;28;20502;-84
2022/05/09 13:18:45;;;;;;;4.00;2.72;;;;;;;21.04;20.50;101245.88;10404298;28;20509;-84
2022/05/09 13:23:48;;;;;;;4.10;2.30;;;;;;;22.01;19.45;101224.66;10420181;28;20589;-84
2022/05/09 13:28:55;;;;;;;5.35;2.63;;;;;;;22.25;19.14;101216.81;10420063;28;20247;-85
2022/05/09 13:33:58;;;;;;;4.82;3.17;;;;;;;22.95;19.28;101202.25;10403778;28;20189;-85
2022/05/09 13:39:06;;;;;;;5.40;2.75;;;;;;;21.02;21.01;101219.41;10420439;28;20192;-84
2022/05/09 13:44:08;;;;;;;5.78;3.05;;;;;;;21.55;20.25;101216.66;10420856;28;20188;-85
2022/05/09 13:49:12;;;;;;;4.43;2.78;;;;;;;22.21;19.78;101204.47;10403515;28;20480;-85
2022/05/09 13:54:21;;;;;;;6.15;2.85;;;;;;;22.27;20.46;101196.88;10386341;28;20205;-85
2022/05/09 13:59:23;;;;;;;6.07;3.05;;;;;;;23.34;18.78;101189.00;10403473;28;20243;-86
2022/05/09 14:04:25;;;;;;;3.60;2.22;;;;;;;23.40;19.58;101181.38;10402572;28;20239;-83
2022/05/09 14:09:28;;;;;;;4.40;2.30;;;;;;;23.68;17.84;101183.63;10368686;28;20216;-84
2022/05/09 14:14:40;;;;;;;3.90;2.10;;;;;;;23.99;17.98;101189.94;10402411;28;20243;-85
2022/05/09 14:19:42;;;;;;;2.17;1.98;;;;;;;22.89;18.41;101185.81;10419762;28;20212;-83
2022/05/09 14:30:11;;;;;;;4.95;2.20;;;;;;;22.82;18.46;101180.94;10404652;28;20254;-78
2022/05/09 14:35:18;;;;;;;4.13;2.00;;;;;;;22.51;18.33;101159.97;10415706;28;20196;-83
2022/05/09 14:40:24;;;;;;;3.55;2.05;;;;;;;21.39;19.26;101163.50;10401457;28;20673;-82
2022/05/09 14:45:32;;;;;;;3.33;2.15;;;;;;;23.29;18.22;101151.72;10401418;28;20597;-84
2022/05/09 14:50:36;;;;;;;3.65;1.55;;;;;;;22.02;18.93;101155.88;10385169;28;20208;-82
2022/05/09 15:01:09;;;;;;;3.83;2.22;;;;;;;22.42;18.51;101138.59;10403399;28;20282;-81
2022/05/09 15:06:13;;;;;;;3.15;2.15;;;;;;;21.52;19.30;101144.25;10400545;28;20663;-82
2022/05/09 15:11:19;;;;;;;4.10;2.13;;;;;;;23.96;17.42;101134.75;10384367;28;20217;-83
2022/05/09 15:16:26;;;;;;;2.63;1.90;;;;;;;22.29;18.58;101142.16;10383940;28;20250;-83
2022/05/09 15:21:28;;;;;;;2.15;1.80;;;;;;;22.35;17.96;101128.78;10404220;28;20250;-81
2022/05/09 15:26:36;;;;;;;3.60;2.00;;;;;;;23.38;17.78;101131.59;10402210;28;20243;-81
2022/05/09 15:31:40;;;;;;;8.80;2.70;;;;;;;21.79;18.65;101121.06;10392270;28;20208;-88
2022/05/09 15:36:44;;;;;;;2.75;2.10;;;;;;;22.29;19.08;101110.22;10406463;28;20196;-85
2022/05/09 15:41:48;;;;;;;2.33;1.80;;;;;;;22.83;17.89;101107.09;10408639;28;20247;-82
2022/05/09 15:46:50;;;;;;;3.33;1.65;;;;;;;22.34;17.06;101114.72;10423516;28;20664;-83
2022/05/09 15:51:52;;;;;;;5.88;2.30;;;;;;;22.77;17.38;101108.84;10407418;28;20239;-82
2022/05/09 15:56:54;;;;;;;3.03;1.73;;;;;;;22.54;17.65;101106.00;10424684;28;20180;-82
2022/05/09 16:02:00;;;;;;;5.20;3.42;;;;;;;22.08;17.63;101104.00;10365982;28;20221;-84
2022/05/09 16:12:29;;;;;;;2.83;2.17;;;;;;;22.86;17.79;101091.69;10382498;28;20201;-82
2022/05/09 16:17:32;;;;;;;3.20;1.95;;;;;;;21.41;18.28;101091.44;10379191;28;20267;-82
2022/05/09 16:22:35;;;;;;;3.75;2.10;;;;;;;22.85;17.75;101080.50;10395469;28;20186;-92
2022/05/09 16:27:47;;;;;;;3.65;1.85;;;;;;;22.43;17.58;101082.19;10416720;23;20227;-86
2022/05/09 16:32:50;;;;;;;3.88;1.70;;;;;;;22.47;18.42;101086.66;10431604;28;20208;-84
2022/05/09 16:37:55;;;;;;;2.28;2.08;;;;;;;22.60;18.23;101083.91;10436269;28;20482;-85
2022/05/09 16:42:58;;;;;;;4.20;2.00;;;;;;;23.07;16.68;101075.84;10472662;28;20187;-88
2022/05/09 16:48:00;;;;;;;4.97;3.22;;;;;;;23.21;17.38;101068.91;10492753;28;20187;-89
2022/05/09 16:53:03;;;;;;;3.05;2.65;;;;;;;22.76;18.17;101059.97;10470042;28;20268;-80
2022/05/09 16:58:05;;;;;;;2.78;1.95;;;;;;;22.95;16.97;101054.13;10505067;28;20213;-80
2022/05/09 17:03:13;;;;;;;3.47;2.40;;;;;;;21.90;18.29;101060.81;10504832;28;20187;-83
2022/05/09 17:08:16;;;;;;;6.78;2.63;;;;;;;22.10;17.72;101057.97;10470335;28;20241;-80
2022/05/09 17:13:23;;;;;;;4.40;2.25;;;;;;;22.72;18.37;101059.22;10504125;28;20211;-81
2022/05/09 17:18:26;;;;;;;3.22;2.92;;;;;;;23.01;17.01;101045.69;10469675;28;20219;-82
2022/05/09 17:23:28;;;;;;;2.55;2.33;;;;;;;22.11;17.25;101048.81;10504046;28;20184;-87
2022/05/09 17:28:30;;;;;;;4.63;2.40;;;;;;;22.30;18.37;101045.13;10487677;28;20223;-83
2022/05/09 17:33:32;;;;;;;4.10;2.60;;;;;;;22.07;18.12;101053.03;10505974;28;20229;-82
2022/05/09 17:38:34;;;;;;;4.15;2.33;;;;;;;21.70;18.50;101057.00;10505377;28;20187;-87
2022/05/09 17:43:37;;;;;;;2.97;2.15;;;;;;;22.11;19.10;101051.72;10477516;28;20253;-86
2022/05/09 17:48:39;;;;;;;4.50;2.47;;;;;;;20.86;19.74;101061.59;10446057;28;20196;-85
2022/05/09 17:53:41;;;;;;;3.97;2.35;;;;;;;21.91;19.04;101047.94;10449952;28;20277;-85
2022/05/09 17:58:47;;;;;;;2.75;2.40;;;;;;;21.69;19.19;101049.56;10463799;28;20188;-84
2022/05/09 18:03:49;;;;;;;4.57;2.30;;;;;;;21.78;19.05;101056.47;10454395;28;20192;-88
2022/05/09 18:08:52;;;;;;;3.75;2.70;;;;;;;21.68;19.41;101054.56;10464766;28;20192;-94
2022/05/09 18:13:55;;;;;;;10.55;3.00;;;;;;;21.44;19.78;101053.72;10462804;28;20393;-90
2022/05/09 18:18:59;;;;;;;5.05;3.20;;;;;;;21.28;20.06;101059.34;10446258;28;20261;-88
2022/05/09 18:24:06;;;;;;;6.75;3.08;;;;;;;20.93;21.17;101055.72;10431110;28;20244;-89
2022/05/09 18:29:08;;;;;;;6.53;5.35;;;;;;;21.27;21.32;101052.75;10427731;28;20219;-90
2022/05/09 18:34:12;;;;;;;7.18;2.78;;;;;;;21.06;21.52;101053.06;10445514;28;20203;-86
2022/05/09 18:39:19;;;;;;;3.45;2.88;;;;;;;20.99;21.54;101058.13;10452646;28;20253;-92
2022/05/09 18:44:24;;;;;;;3.63;2.95;;;;;;;20.68;21.95;101063.91;10461838;28;20191;-91
2022/05/09 18:54:47;;;;;;;6.80;3.35;;;;;;;20.37;22.34;101056.44;10503003;28;20199;-91
2022/05/09 18:59:51;;;;;;;6.47;3.95;;;;;;;20.32;22.83;101063.50;10465121;28;20187;-92
2022/05/09 19:04:53;;;;;;;9.02;3.70;;;;;;;20.06;23.76;101065.00;10463371;28;20195;-90
2022/05/09 19:10:01;;;;;;;6.68;3.75;;;;;;;19.73;24.19;101063.66;10482007;28;20484;-93
2022/05/09 19:15:05;;;;;;;7.65;5.07;;;;;;;19.64;23.98;101059.63;10483885;28;20264;-89
2022/05/09 19:20:08;;;;;;;4.40;4.00;;;;;;;19.74;24.38;101065.28;10492971;28;20292;-88
2022/05/09 19:25:11;;;;;;;8.02;4.53;;;;;;;19.54;24.46;101067.09;10482861;28;20591;-87
2022/05/09 19:30:15;;;;;;;6.00;4.15;;;;;;;19.64;24.15;101068.28;10495949;28;20227;-82
2022/05/09 19:35:20;;;;;;;6.45;5.75;;;;;;;19.07;25.55;101072.38;10477716;28;20745;-83
2022/05/09 19:40:24;;;;;;;16.33;11.45;;;;;;;19.61;24.83;101077.81;10476594;28;20195;-85
2022/05/09 19:45:31;;;;;;;9.52;6.95;;;;;;;19.14;25.68;101071.50;10434983;28;20188;-84
2022/05/09 19:50:42;;;;;;;9.68;6.35;;;;;;;19.03;26.02;101079.41;10423778;28;20196;-87
2022/05/09 19:55:45;;;;;;;13.18;7.40;;;;;;;18.87;26.45;101073.34;10445910;28;20214;-93
2022/05/09 20:00:49;;;;;;;8.18;5.43;;;;;;;19.08;25.60;101070.31;10463484;28;20235;-88
2022/05/09 20:05:51;;;;;;;10.35;7.22;;;;;;;19.06;25.62;101070.72;10470167;28;20192;-87
2022/05/09 20:10:56;;;;;;;12.15;11.02;;;;;;;19.04;26.17;101079.00;10453589;28;20238;-84
2022/05/09 20:16:02;;;;;;;10.02;7.20;;;;;;;18.70;26.84;101075.84;10469145;28;20238;-86
2022/05/09 20:21:09;;;;;;;9.35;6.47;;;;;;;18.83;26.90;101067.56;10442904;28;20212;-87
2022/05/09 20:31:32;;;;;;;7.78;5.25;;;;;;;18.80;26.37;101065.53;10460268;28;20673;-92
2022/05/09 20:36:34;;;;;;;4.75;4.35;;;;;;;18.68;26.88;101066.78;10441870;28;20191;-91
2022/05/09 20:41:39;;;;;;;5.93;4.25;;;;;;;18.65;26.44;101064.75;10440195;28;20241;-90
2022/05/09 20:46:41;;;;;;;10.50;4.45;;;;;;;18.37;27.39;101067.72;10422715;28;20200;-92
2022/05/09 20:51:45;;;;;;;29.25;17.50;;;;;;;18.41;27.31;101069.38;10455491;28;20215;-91
2022/05/09 20:56:48;;;;;;;13.95;7.50;;;;;;;18.05;27.59;101071.50;10439622;28;20269;-91
2022/05/09 21:01:51;;;;;;;14.93;9.50;;;;;;;18.15;27.92;101067.78;10441580;28;20195;-88
2022/05/09 21:06:55;;;;;;;7.90;5.45;;;;;;;17.69;28.75;101067.03;10424822;28;20666;-85
2022/05/09 21:11:58;;;;;;;5.85;5.22;;;;;;;18.07;27.80;101066.16;10432662;28;20485;-93
2022/05/09 21:17:00;;;;;;;8.77;5.28;;;;;;;17.69;28.75;101062.09;10433948;28;20253;-93
2022/05/09 21:22:03;;;;;;;7.25;5.18;;;;;;;17.31;29.30;101057.91;10439875;28;20212;-88
2022/05/09 21:27:05;;;;;;;5.53;4.97;;;;;;;17.22;29.47;101066.13;10446523;28;20227;-91
2022/05/09 21:32:09;;;;;;;6.63;5.15;;;;;;;17.06;29.93;101069.34;10415556;28;20219;-93
2022/05/09 21:37:14;;;;;;;8.48;4.30;;;;;;;17.10;29.69;101063.63;10456520;28;20191;-84
2022/05/09 21:42:16;;;;;;;5.13;4.65;;;;;;;17.22;29.35;101062.44;10428810;28;20266;-92
2022/05/09 21:47:19;;;;;;;5.32;4.82;;;;;;;16.68;30.59;101070.88;10431182;28;20325;-87
2022/05/09 21:52:21;;;;;;;7.65;4.60;;;;;;;17.38;29.41;101062.88;10448123;28;20216;-84
2022/05/09 21:57:23;;;;;;;7.25;5.38;;;;;;;16.99;30.41;101062.78;10458321;28;20488;-85
2022/05/09 22:02:26;;;;;;;8.65;4.70;;;;;;;17.42;29.24;101061.66;10400649;28;20208;-90
2022/05/09 22:07:28;;;;;;;5.72;4.65;;;;;;;17.19;29.72;101045.97;10415064;28;20250;-86
2022/05/09 22:12:31;;;;;;;6.20;4.00;;;;;;;17.50;28.73;101048.06;10399176;28;20270;-88
2022/05/09 22:17:34;;;;;;;4.78;4.20;;;;;;;17.02;29.12;101038.94;10416532;28;20290;-85
2022/05/09 22:22:36;;;;;;;7.22;4.53;;;;;;;16.80;29.25;101040.09;10416772;28;20188;-88
2022/05/09 22:27:39;;;;;;;6.50;4.90;;;;;;;17.08;28.75;101032.38;10398588;28;20221;-94
2022/05/09 22:32:45;;;;;;;5.13;4.45;;;;;;;16.85;29.73;101023.28;10416617;28;20196;-84
2022/05/09 22:37:50;;;;;;;6.28;5.22;;;;;;;16.40;29.87;101021.84;10399969;28;20597;-87
2022/05/09 22:42:52;;;;;;;9.98;4.90;;;;;;;16.47;30.02;101013.28;10455698;28;20237;-87
2022/05/09 22:48:08;;;;;;;7.53;5.60;;;;;;;16.79;29.23;101001.09;10464875;28;20191;-89
2022/05/09 22:53:25;;;;;;;5.47;4.97;;;;;;;16.49;29.75;100998.50;10510475;28;20219;-83
2022/05/09 22:58:39;;;;;;;9.15;6.05;;;;;;;16.52;29.91;100998.53;10516410;28;20187;-83
2022/05/09 23:03:42;;;;;;;6.23;5.60;;;;;;;16.55;29.61;101003.44;10497323;28;20228;-85
2022/05/09 23:08:47;;;;;;;6.53;5.82;;;;;;;16.27;30.11;101003.34;10480824;28;20454;-86
2022/05/09 23:13:49;;;;;;;6.40;5.25;;;;;;;16.74;29.26;100991.63;10479890;28;20211;-86
2022/05/09 23:18:55;;;;;;;6.45;5.75;;;;;;;16.37;29.67;100993.94;10497006;28;20515;-88
2022/05/09 23:23:57;;;;;;;7.65;6.18;;;;;;;16.07;30.26;100988.47;10463183;28;20241;-87
2022/05/09 23:29:02;;;;;;;6.15;5.50;;;;;;;16.39;29.54;100988.63;10490822;28;20717;-89
2022/05/09 23:34:04;;;;;;;6.35;5.60;;;;;;;15.64;31.01;100990.22;10436900;28;20249;-86
2022/05/09 23:39:07;;;;;;;6.00;5.28;;;;;;;15.88;30.52;100980.94;10437078;28;20218;-84
2022/05/09 23:44:09;;;;;;;7.32;5.93;;;;;;;15.80;30.71;100973.50;10476010;28;20248;-85
2022/05/09 23:49:19;;;;;;;7.43;6.57;;;;;;;15.59;30.92;100973.38;10502950;28;20637;-83
2022/05/09 23:54:22;;;;;;;7.82;5.93;;;;;;;15.68;31.04;100962.34;10485757;28;20214;-86
2022/05/09 23:59:24;;;;;;;6.30;5.47;;;;;;;15.76;30.26;100955.44;10502352;28;20187;-87
